Time;durP1;ratioP1;P1;durP2;ratioP2;P2;SDS_P1;SDS_P2;PMS_P1;PMS_P2;Temp;Humidity;BMP_temperature;BMP_pressure;BME280_temperature;BME280_humidity;BME280_pressure;Samples;Min_cycle;Max_cycle;Signal;HPM_P1;HPM_P2
2024/03/11 00:00:15;;;;;;;15.23;13.75;;;;;;;11.63;58.54;97212.59;5092193;28;20024;-49
2024/03/11 00:02:45;;;;;;;3.13;1.30;;;;;;;11.45;61.42;97218.13;5093495;28;20020;-49
2024/03/11 00:05:12;;;;;;;1.25;0.77;;;;;;;11.24;61.36;97209.97;5092250;28;20024;-50
2024/03/11 00:07:39;;;;;;;1.73;1.10;;;;;;;10.94;63.43;97224.19;5093553;28;20012;-49
2024/03/11 00:10:11;;;;;;;7.65;3.03;;;;;;;10.85;64.55;97223.03;5093106;28;20027;-49
2024/03/11 00:12:41;;;;;;;4.72;3.33;;;;;;;10.92;65.33;97226.28;5091908;28;20016;-49
2024/03/11 00:15:26;;;;;;;7.68;6.88;;;;;;;10.90;66.38;97230.97;5075071;28;20035;-49
2024/03/11 00:17:52;;;;;;;9.23;7.55;;;;;;;10.90;66.01;97227.56;5091952;28;20550;-50
2024/03/11 00:20:22;;;;;;;4.47;1.73;;;;;;;10.76;64.76;97232.31;5092935;28;20028;-49
2024/03/11 00:22:49;;;;;;;3.10;1.27;;;;;;;10.66;64.05;97230.31;5092963;28;20066;-49
2024/03/11 00:25:17;;;;;;;2.88;1.48;;;;;;;10.48;63.88;97231.31;5092946;28;20024;-49
2024/03/11 00:27:43;;;;;;;3.13;1.15;;;;;;;10.63;65.13;97230.00;5092981;28;20036;-49
2024/03/11 00:30:10;;;;;;;8.13;3.63;;;;;;;10.73;64.78;97230.97;5092829;28;20028;-49
2024/03/11 00:32:44;;;;;;;5.85;3.58;;;;;;;10.79;65.25;97223.97;5092836;28;20020;-49
2024/03/11 00:35:14;;;;;;;7.00;1.60;;;;;;;10.72;65.91;97236.44;5092755;28;20028;-49
2024/03/11 00:37:41;;;;;;;7.45;2.50;;;;;;;10.48;66.68;97239.19;5092907;28;20039;-49
2024/03/11 00:40:08;;;;;;;6.22;4.40;;;;;;;10.33;68.04;97242.31;5092897;28;20046;-49
2024/03/11 00:42:39;;;;;;;4.95;2.95;;;;;;;10.31;69.21;97239.13;5092699;28;20067;-49
2024/03/11 00:45:06;;;;;;;6.97;4.15;;;;;;;10.31;69.95;97233.09;5092552;28;20024;-48
2024/03/11 00:47:34;;;;;;;2.20;1.05;;;;;;;10.33;70.25;97236.28;5092817;28;20123;-49
2024/03/11 00:50:00;;;;;;;7.47;3.13;;;;;;;10.29;70.08;97233.31;5092537;28;20509;-49
2024/03/11 00:52:35;;;;;;;20.45;18.25;;;;;;;10.27;70.95;97232.75;5091192;28;20042;-49
2024/03/11 00:55:06;;;;;;;3.78;1.38;;;;;;;10.37;69.77;97230.34;5090438;28;20493;-49
2024/03/11 00:57:35;;;;;;;6.82;3.25;;;;;;;10.43;69.77;97228.59;5092284;28;20055;-49
2024/03/11 01:00:05;;;;;;;7.30;4.32;;;;;;;10.53;69.77;97230.63;5092236;28;20077;-49
2024/03/11 01:02:33;;;;;;;4.57;2.05;;;;;;;10.57;65.81;97236.97;5092321;28;20047;-49
2024/03/11 01:04:59;;;;;;;2.97;1.50;;;;;;;10.24;65.54;97235.84;5091167;28;20097;-49
2024/03/11 01:07:26;;;;;;;3.83;1.40;;;;;;;10.06;64.80;97239.44;5092283;28;20051;-49
2024/03/11 01:09:53;;;;;;;6.05;1.65;;;;;;;9.87;65.81;97236.16;5090897;28;20035;-49
2024/03/11 01:12:34;;;;;;;5.15;1.88;;;;;;;9.66;67.30;97236.75;5090796;28;20023;-49
2024/03/11 01:15:01;;;;;;;5.25;2.95;;;;;;;9.68;67.49;97240.75;5092157;28;20028;-49
2024/03/11 01:17:29;;;;;;;4.68;2.75;;;;;;;9.71;67.30;97242.13;5091865;28;20059;-49
2024/03/11 01:19:55;;;;;;;4.28;2.72;;;;;;;9.80;67.69;97243.38;5090743;28;20110;-49
2024/03/11 01:22:47;;;;;;;6.70;3.47;;;;;;;9.83;67.90;97244.72;5092030;28;20149;-49
2024/03/11 01:25:13;;;;;;;7.97;1.90;;;;;;;9.85;67.13;97247.91;5086947;28;20036;-49
2024/03/11 01:27:43;;;;;;;4.65;1.88;;;;;;;9.74;67.76;97239.84;5092133;28;20497;-49
2024/03/11 01:30:12;;;;;;;147.80;100.22;;;;;;;9.70;68.87;97232.66;5092161;28;20024;-49
2024/03/11 01:32:44;;;;;;;60.63;47.75;;;;;;;9.68;69.49;97240.75;5091769;28;20555;-49
2024/03/11 01:35:15;;;;;;;27.92;20.90;;;;;;;9.58;69.85;97238.72;5091712;28;20024;-49
2024/03/11 01:37:50;;;;;;;21.42;15.60;;;;;;;9.34;69.43;97242.38;5090982;28;20394;-49
2024/03/11 01:40:19;;;;;;;13.38;9.02;;;;;;;9.32;70.34;97237.38;5092126;28;20478;-49
2024/03/11 01:42:46;;;;;;;75.70;58.20;;;;;;;9.43;70.18;97248.06;5090471;28;20111;-49
2024/03/11 01:45:12;;;;;;;12.07;6.28;;;;;;;9.42;69.52;97256.94;5090681;28;20024;-50
2024/03/11 01:47:39;;;;;;;6.88;3.00;;;;;;;9.34;69.16;97266.72;5090371;28;20552;-49
2024/03/11 01:50:09;;;;;;;6.35;2.78;;;;;;;9.27;69.03;97267.88;5091800;28;20032;-49
2024/03/11 01:52:43;;;;;;;4.30;1.55;;;;;;;9.27;69.01;97268.66;5090562;28;20028;-49
2024/03/11 01:55:10;;;;;;;13.52;10.18;;;;;;;9.25;68.33;97269.91;5091630;28;20447;-49
2024/03/11 01:57:37;;;;;;;10.52;8.30;;;;;;;9.38;68.87;97269.69;5090376;28;20028;-49
2024/03/11 02:00:08;;;;;;;10.63;9.18;;;;;;;9.48;67.87;97271.75;5091619;28;20043;-49
2024/03/11 02:02:40;;;;;;;11.77;10.07;;;;;;;9.36;67.41;97269.91;5090244;28;20082;-48
2024/03/11 02:05:14;;;;;;;12.77;11.25;;;;;;;9.21;67.44;97274.78;5090403;28;20113;-49
2024/03/11 02:07:52;;;;;;;16.45;13.98;;;;;;;9.13;68.12;97275.13;5095576;28;20020;-49
2024/03/11 02:10:21;;;;;;;12.18;9.73;;;;;;;9.18;68.36;97267.41;5077454;28;20031;-49
2024/03/11 02:12:48;;;;;;;5.38;3.53;;;;;;;9.28;68.29;97261.63;5095259;28;20020;-49
2024/03/11 02:15:17;;;;;;;5.28;3.70;;;;;;;9.32;67.48;97260.94;5095599;28;20032;-50
2024/03/11 02:17:43;;;;;;;7.55;3.97;;;;;;;9.20;67.61;97260.91;5077240;28;20044;-49
2024/03/11 02:20:17;;;;;;;8.77;7.95;;;;;;;9.17;68.07;97263.97;5093874;28;20035;-49
2024/03/11 02:22:57;;;;;;;6.20;3.47;;;;;;;9.15;68.19;97260.00;5093925;28;20024;-49
2024/03/11 02:25:27;;;;;;;4.70;1.55;;;;;;;9.08;68.35;97257.50;5094033;28;20090;-49
2024/03/11 02:28:00;;;;;;;7.40;3.15;;;;;;;9.13;68.78;97254.97;5095225;28;20500;-49
2024/03/11 02:30:28;;;;;;;5.25;1.77;;;;;;;9.06;68.17;97256.13;5095115;28;20024;-49
2024/03/11 02:32:54;;;;;;;6.03;4.20;;;;;;;8.94;68.70;97267.38;5093779;28;20028;-49
2024/03/11 02:35:22;;;;;;;3.75;1.20;;;;;;;8.91;68.86;97259.16;5095069;28;20091;-49
2024/03/11 02:37:55;;;;;;;5.32;1.80;;;;;;;8.84;69.04;97271.56;5093736;28;20121;-49
2024/03/11 02:40:26;;;;;;;6.90;1.92;;;;;;;8.66;69.17;97260.13;5093809;28;20031;-49
2024/03/11 02:42:53;;;;;;;8.32;5.07;;;;;;;8.49;69.41;97274.84;5094129;28;20516;-49
2024/03/11 02:45:19;;;;;;;5.72;2.30;;;;;;;8.31;70.18;97273.03;5093764;28;20035;-49
2024/03/11 02:48:11;;;;;;;14.48;11.90;;;;;;;8.12;70.81;97274.88;5093559;28;20020;-49
2024/03/11 02:50:37;;;;;;;7.57;2.47;;;;;;;8.12;71.31;97280.09;5093008;28;20028;-49
2024/03/11 02:53:04;;;;;;;9.70;4.35;;;;;;;8.04;71.60;97283.81;5093698;28;20028;-50
2024/03/11 02:55:33;;;;;;;6.20;2.65;;;;;;;8.19;72.03;97275.59;5076734;28;20020;-48
2024/03/11 02:57:58;;;;;;;16.60;14.98;;;;;;;8.41;71.85;97283.81;5094631;28;20020;-49
2024/03/11 03:00:25;;;;;;;12.77;9.50;;;;;;;8.50;71.01;97281.69;5093604;28;20440;-49
2024/03/11 03:02:53;;;;;;;12.68;7.40;;;;;;;8.46;71.06;97283.16;5093505;28;20020;-49
2024/03/11 03:05:21;;;;;;;9.70;6.25;;;;;;;8.46;71.48;97286.53;5094731;28;20024;-49
2024/03/11 03:07:50;;;;;;;5.43;3.92;;;;;;;8.45;72.22;97279.75;5094616;28;20424;-49
2024/03/11 03:10:17;;;;;;;11.02;9.05;;;;;;;8.58;71.99;97282.16;5094589;28;20030;-49
2024/03/11 03:12:47;;;;;;;16.73;13.48;;;;;;;8.85;71.70;97286.22;5093061;28;20032;-49
2024/03/11 03:15:16;;;;;;;10.52;6.70;;;;;;;9.18;71.10;97291.75;5094318;28;20133;-49
2024/03/11 03:17:43;;;;;;;8.55;2.20;;;;;;;9.31;69.69;97285.50;5091725;28;20483;-49
2024/03/11 03:20:14;;;;;;;4.38;1.88;;;;;;;9.34;68.79;97287.69;5094235;28;20401;-49
2024/03/11 03:22:40;;;;;;;6.18;2.28;;;;;;;9.43;69.06;97289.97;5093191;28;20039;-49
2024/03/11 03:25:07;;;;;;;3.88;1.67;;;;;;;9.80;67.98;97286.09;5093947;28;20028;-49
2024/03/11 03:27:33;;;;;;;4.70;1.85;;;;;;;9.85;66.62;97289.84;5094182;28;20474;-49
2024/03/11 03:29:58;;;;;;;4.63;1.65;;;;;;;9.58;65.92;97287.69;5094122;28;20027;-49
2024/03/11 03:32:27;;;;;;;2.58;1.50;;;;;;;9.40;66.51;97294.63;5094112;28;20024;-49
2024/03/11 03:34:53;;;;;;;4.13;1.70;;;;;;;9.21;66.84;97293.13;5075817;28;20115;-49
2024/03/11 03:37:22;;;;;;;8.27;1.73;;;;;;;9.10;67.01;97286.06;5092828;28;20081;-49
2024/03/11 03:39:48;;;;;;;7.30;1.55;;;;;;;8.91;67.23;97293.97;5093850;28;20108;-49
2024/03/11 03:42:13;;;;;;;4.55;1.25;;;;;;;8.68;67.58;97299.94;5093867;28;20517;-49
2024/03/11 03:44:40;;;;;;;6.40;1.52;;;;;;;8.53;68.60;97297.72;5092869;28;20024;-49
2024/03/11 03:47:05;;;;;;;5.20;1.88;;;;;;;8.52;69.44;97303.97;5092567;28;20027;-49
2024/03/11 03:49:32;;;;;;;4.10;1.52;;;;;;;8.76;69.56;97307.47;5092330;28;20024;-49
2024/03/11 03:52:05;;;;;;;5.70;1.70;;;;;;;8.86;68.00;97293.84;5093834;28;20023;-49
2024/03/11 03:54:32;;;;;;;3.55;1.63;;;;;;;8.74;68.29;97293.03;5093685;28;20043;-49
2024/03/11 03:56:58;;;;;;;4.50;1.50;;;;;;;8.65;68.55;97297.75;5093756;28;20493;-49
2024/03/11 03:59:24;;;;;;;3.03;1.70;;;;;;;8.54;68.71;97303.75;5092267;28;20020;-49
2024/03/11 04:01:50;;;;;;;6.10;1.65;;;;;;;8.51;69.27;97312.84;5092090;28;20119;-49
2024/03/11 04:04:16;;;;;;;4.45;1.75;;;;;;;8.54;69.79;97306.38;5093326;28;20027;-49
2024/03/11 04:06:43;;;;;;;5.07;2.17;;;;;;;8.64;69.66;97313.69;5093606;28;20016;-49
2024/03/11 04:09:08;;;;;;;7.68;1.70;;;;;;;8.67;69.77;97313.22;5091898;28;20119;-49
2024/03/11 04:11:37;;;;;;;4.70;1.92;;;;;;;8.71;68.85;97314.38;5093277;28;20101;-49
2024/03/11 04:14:03;;;;;;;4.15;1.58;;;;;;;8.48;69.17;97321.13;5092217;28;20058;-49
2024/03/11 04:16:28;;;;;;;3.45;1.70;;;;;;;8.34;69.70;97317.03;5092957;28;20072;-49
2024/03/11 04:18:55;;;;;;;7.03;2.80;;;;;;;8.30;70.74;97321.09;5074836;28;20044;-49
2024/03/11 04:21:21;;;;;;;6.18;2.42;;;;;;;8.31;70.62;97333.16;5091771;28;20138;-49
2024/03/11 04:23:59;;;;;;;4.15;2.25;;;;;;;8.28;70.51;97338.81;5092900;28;20103;-49
2024/03/11 04:26:25;;;;;;;9.70;1.60;;;;;;;8.10;70.11;97339.63;5091895;28;20406;-49
2024/03/11 04:28:51;;;;;;;4.63;1.48;;;;;;;8.03;70.94;97347.53;5091876;28;20035;-49
2024/03/11 04:31:17;;;;;;;5.80;1.40;;;;;;;8.02;71.36;97350.34;5092928;28;20028;-49
2024/03/11 04:33:42;;;;;;;7.32;1.77;;;;;;;7.97;71.08;97346.59;5092827;28;20028;-49
2024/03/11 04:36:08;;;;;;;4.68;2.00;;;;;;;7.97;71.59;97357.03;5091540;28;20032;-49
2024/03/11 04:38:37;;;;;;;2.80;1.65;;;;;;;7.93;71.30;97350.66;5091404;28;20024;-49
2024/03/11 04:41:02;;;;;;;10.40;2.47;;;;;;;7.80;71.55;97362.00;5092584;28;20023;-49
2024/03/11 04:43:28;;;;;;;8.13;3.00;;;;;;;7.86;72.10;97362.97;5091356;28;20028;-49
2024/03/11 04:45:56;;;;;;;10.15;2.65;;;;;;;8.17;73.10;97364.66;5092604;28;20499;-49
2024/03/11 04:48:21;;;;;;;8.07;2.00;;;;;;;8.68;72.46;97360.09;5091314;28;20047;-49
2024/03/11 04:50:47;;;;;;;5.38;1.60;;;;;;;9.08;70.87;97366.63;5091216;28;20105;-49
2024/03/11 04:53:15;;;;;;;4.72;1.70;;;;;;;8.97;68.18;97365.53;5092537;28;20024;-49
2024/03/11 04:55:44;;;;;;;4.03;2.05;;;;;;;8.73;68.11;97375.94;5092818;28;20032;-49
2024/03/11 04:58:10;;;;;;;3.95;1.90;;;;;;;8.42;68.53;97379.50;5092583;28;20390;-49
2024/03/11 05:00:35;;;;;;;4.43;1.85;;;;;;;8.22;69.61;97381.50;5092319;28;20024;-49
2024/03/11 05:03:03;;;;;;;7.00;2.17;;;;;;;8.09;69.87;97391.09;5092363;28;20081;-49
2024/03/11 05:05:35;;;;;;;3.50;2.00;;;;;;;7.94;70.60;97391.41;5092277;28;20375;-49
2024/03/11 05:08:16;;;;;;;8.38;6.90;;;;;;;7.89;70.97;97391.28;5092073;28;20016;-49
2024/03/11 05:11:08;;;;;;;5.88;2.83;;;;;;;7.92;70.85;97395.25;5092178;28;20024;-49
2024/03/11 05:13:35;;;;;;;3.83;2.35;;;;;;;7.79;70.70;97393.56;5091353;28;20524;-49
2024/03/11 05:16:01;;;;;;;5.35;2.55;;;;;;;7.79;71.58;97393.56;5091352;28;20380;-50
2024/03/11 05:18:27;;;;;;;9.00;2.30;;;;;;;8.00;71.07;97401.00;5091948;28;20060;-49
2024/03/11 05:20:55;;;;;;;5.88;2.03;;;;;;;8.24;70.72;97403.78;5092069;28;20576;-49
2024/03/11 05:23:21;;;;;;;8.63;6.47;;;;;;;8.42;70.12;97397.81;5091971;28;20024;-49
2024/03/11 05:25:47;;;;;;;5.90;1.77;;;;;;;8.59;69.48;97393.59;5091911;28;20024;-50
2024/03/11 05:28:13;;;;;;;5.93;1.98;;;;;;;8.69;68.74;97389.66;5092000;28;20099;-49
2024/03/11 05:30:39;;;;;;;2.47;1.60;;;;;;;8.54;68.50;97397.88;5090995;28;20115;-49
2024/03/11 05:33:05;;;;;;;3.28;1.50;;;;;;;8.52;68.97;97402.53;5092002;28;20032;-49
2024/03/11 05:35:33;;;;;;;7.97;2.00;;;;;;;8.67;69.04;97389.06;5091950;28;20088;-49
2024/03/11 05:38:00;;;;;;;6.13;1.92;;;;;;;8.78;68.31;97396.97;5091840;28;20104;-49
2024/03/11 05:40:25;;;;;;;7.80;2.05;;;;;;;8.66;68.05;97397.94;5091611;28;20109;-48
2024/03/11 05:42:51;;;;;;;11.15;2.10;;;;;;;8.58;68.70;97402.44;5091852;28;20498;-49
2024/03/11 05:45:17;;;;;;;7.25;2.28;;;;;;;8.86;68.76;97403.72;5091764;28;20406;-49
2024/03/11 05:47:43;;;;;;;10.02;2.00;;;;;;;8.87;68.14;97407.94;5091800;28;20027;-49
2024/03/11 05:50:09;;;;;;;9.65;2.30;;;;;;;8.89;67.90;97410.34;5090479;28;20055;-49
2024/03/11 05:52:35;;;;;;;7.97;2.50;;;;;;;8.82;67.68;97420.88;5091792;28;20030;-49
2024/03/11 05:55:11;;;;;;;6.15;2.47;;;;;;;8.68;67.70;97425.47;5091710;28;20028;-49
2024/03/11 05:57:37;;;;;;;5.25;2.58;;;;;;;8.52;67.78;97424.25;5090379;28;20016;-49
2024/03/11 06:00:13;;;;;;;5.47;2.70;;;;;;;8.35;68.85;97433.63;5090349;28;20027;-49
2024/03/11 06:02:39;;;;;;;;;;;;;;;8.25;69.27;97436.78;5092163;28;20393;-49
2024/03/11 06:05:05;;;;;;;9.70;2.33;;;;;;;8.19;69.45;97438.44;5091625;28;20002;-50
2024/03/11 06:07:33;;;;;;;11.00;2.70;;;;;;;8.34;70.27;97443.31;5090613;28;20032;-49
2024/03/11 06:10:00;;;;;;;11.75;4.72;;;;;;;8.40;70.16;97444.25;5091585;28;20028;-49
2024/03/11 06:12:28;;;;;;;8.45;4.25;;;;;;;8.63;70.32;97448.84;5091629;28;20016;-49
2024/03/11 06:14:54;;;;;;;5.10;2.10;;;;;;;8.80;69.92;97452.50;5091879;28;20077;-49
2024/03/11 06:17:20;;;;;;;11.73;2.80;;;;;;;8.78;68.99;97459.75;5083146;28;20040;-50
2024/03/11 06:19:46;;;;;;;13.75;3.92;;;;;;;8.66;69.05;97456.28;5090496;28;20413;-49
2024/03/11 06:22:15;;;;;;;5.00;2.42;;;;;;;8.73;69.62;97469.28;5090334;28;20050;-49
2024/03/11 06:24:41;;;;;;;11.55;3.17;;;;;;;8.84;69.27;97468.56;5091518;28;20566;-49
2024/03/11 06:27:07;;;;;;;10.57;5.57;;;;;;;8.84;68.90;97467.75;5091463;28;20051;-49
2024/03/11 06:29:35;;;;;;;18.40;13.82;;;;;;;8.86;68.58;97466.53;5091568;28;20085;-49
2024/03/11 06:32:04;;;;;;;13.55;10.35;;;;;;;8.74;68.50;97471.69;5090261;28;20028;-49
2024/03/11 06:34:30;;;;;;;10.85;6.80;;;;;;;8.63;68.56;97468.97;5090124;28;20109;-49
2024/03/11 06:36:55;;;;;;;11.05;5.28;;;;;;;8.72;69.46;97476.34;5091334;28;20052;-49
2024/03/11 06:39:21;;;;;;;9.50;5.38;;;;;;;9.03;69.31;97479.78;5090353;28;20024;-49
2024/03/11 06:41:47;;;;;;;20.50;13.10;;;;;;;9.26;69.01;97471.25;5091325;28;20515;-49
2024/03/11 06:44:13;;;;;;;9.52;4.72;;;;;;;9.42;68.51;97479.50;5090009;28;20028;-49
2024/03/11 06:46:38;;;;;;;14.18;5.18;;;;;;;9.49;68.04;97481.00;5090244;28;20028;-49
2024/03/11 06:49:05;;;;;;;18.40;4.90;;;;;;;9.67;67.92;97489.84;5073155;28;20093;-49
2024/03/11 06:51:31;;;;;;;24.67;5.25;;;;;;;9.75;67.17;97492.94;5091255;28;20027;-49
2024/03/11 06:53:59;;;;;;;13.02;4.22;;;;;;;9.76;66.82;97502.41;5094263;28;20028;-50
2024/03/11 06:56:27;;;;;;;10.98;3.80;;;;;;;9.79;66.70;97507.19;5094815;28;20518;-49
2024/03/11 06:58:53;;;;;;;24.88;5.03;;;;;;;9.74;66.49;97507.06;5093361;28;20118;-49
2024/03/11 07:01:19;;;;;;;19.00;4.10;;;;;;;9.76;67.08;97518.13;5094953;28;20397;-47
2024/03/11 07:03:45;;;;;;;14.13;4.22;;;;;;;9.67;66.89;97519.44;5094721;28;20028;-47
2024/03/11 07:06:11;;;;;;;15.05;3.47;;;;;;;9.56;66.87;97521.03;5094646;28;20422;-47
2024/03/11 07:08:37;;;;;;;18.88;3.90;;;;;;;9.58;67.21;97524.22;5093330;28;20426;-49
2024/03/11 07:11:04;;;;;;;15.75;3.78;;;;;;;9.67;66.91;97527.31;5094769;28;20500;-49
2024/03/11 07:13:31;;;;;;;14.95;5.13;;;;;;;9.67;66.76;97534.38;5094499;28;20546;-50
2024/03/11 07:15:58;;;;;;;8.80;3.90;;;;;;;9.68;66.60;97543.81;5094353;28;20020;-50
2024/03/11 07:18:26;;;;;;;11.65;3.70;;;;;;;9.62;66.20;97544.72;5092833;28;20059;-49
2024/03/11 07:20:52;;;;;;;19.85;9.63;;;;;;;9.51;66.34;97549.69;5094317;28;20077;-49
2024/03/11 07:23:19;;;;;;;10.30;5.25;;;;;;;9.33;66.23;97549.72;5094293;28;20028;-49
2024/03/11 07:25:45;;;;;;;17.75;10.10;;;;;;;9.29;66.75;97557.19;5092900;28;20066;-49
2024/03/11 07:28:12;;;;;;;21.80;13.52;;;;;;;9.34;66.84;97564.41;5094206;28;20421;-49
2024/03/11 07:30:39;;;;;;;16.73;10.80;;;;;;;9.32;66.59;97569.06;5094168;28;20024;-49
2024/03/11 07:33:09;;;;;;;13.82;8.70;;;;;;;9.30;66.54;97569.28;5092791;28;20028;-49
2024/03/11 07:35:37;;;;;;;13.35;5.90;;;;;;;9.32;66.47;97580.34;5092698;28;20028;-49
2024/03/11 07:38:06;;;;;;;25.45;9.82;;;;;;;9.44;66.79;97579.59;5093870;28;20552;-49
2024/03/11 07:40:33;;;;;;;20.90;8.20;;;;;;;9.62;66.89;97584.00;5093900;28;20497;-49
2024/03/11 07:43:00;;;;;;;94.55;84.50;;;;;;;9.82;66.87;97589.81;5092822;28;20024;-49
2024/03/11 07:45:26;;;;;;;53.10;39.42;;;;;;;10.06;66.92;97593.31;5093827;28;20028;-49
2024/03/11 07:47:55;;;;;;;13.32;8.13;;;;;;;10.41;66.63;97589.19;5092719;28;20504;-49
2024/03/11 07:50:22;;;;;;;15.57;6.47;;;;;;;10.61;65.25;97591.50;5093700;28;20027;-48
2024/03/11 07:52:52;;;;;;;13.10;5.50;;;;;;;10.81;65.27;97599.03;5093642;28;20051;-49
2024/03/11 07:55:17;;;;;;;11.88;5.13;;;;;;;11.05;64.89;97597.97;5093591;28;20111;-49
2024/03/11 07:57:46;;;;;;;13.77;5.00;;;;;;;11.33;64.15;97597.25;5092268;28;20035;-49
2024/03/11 08:00:18;;;;;;;8.35;3.42;;;;;;;12.06;63.21;97597.59;5093534;28;20106;-49
2024/03/11 08:02:45;;;;;;;8.02;3.28;;;;;;;12.99;60.24;97608.50;5093357;28;20581;-49
2024/03/11 08:05:13;;;;;;;6.85;3.70;;;;;;;13.09;59.04;97604.44;5093025;28;20023;-49
2024/03/11 08:07:47;;;;;;;13.25;3.20;;;;;;;12.98;58.67;97606.94;5092016;28;20020;-49
2024/03/11 08:10:13;;;;;;;14.15;3.20;;;;;;;13.06;58.23;97610.16;5093833;28;20031;-49
2024/03/11 08:12:43;;;;;;;11.55;3.95;;;;;;;13.13;57.55;97611.59;5093475;28;20027;-49
2024/03/11 08:15:14;;;;;;;19.58;3.58;;;;;;;13.02;57.30;97611.69;5075618;28;20498;-49
2024/03/11 08:17:44;;;;;;;23.63;6.88;;;;;;;12.89;57.30;97618.13;5075512;28;20059;-49
2024/03/11 08:20:17;;;;;;;23.10;4.43;;;;;;;12.67;57.50;97621.47;5093204;28;20390;-49
2024/03/11 08:22:55;;;;;;;19.77;5.35;;;;;;;12.47;58.10;97621.94;5093133;28;20397;-49
2024/03/11 08:25:27;;;;;;;21.50;5.30;;;;;;;12.50;58.85;97624.13;5093089;28;20056;-49
2024/03/11 08:27:54;;;;;;;16.55;3.70;;;;;;;12.72;58.50;97631.31;5091922;28;20033;-49
2024/03/11 08:30:30;;;;;;;13.73;3.97;;;;;;;12.99;57.26;97629.59;5092931;28;20028;-49
2024/03/11 08:32:56;;;;;;;15.40;4.22;;;;;;;13.26;57.06;97633.38;5092920;28;20081;-49
2024/03/11 08:35:25;;;;;;;12.23;3.58;;;;;;;13.64;56.24;97629.91;5091870;28;20032;-49
2024/03/11 08:37:52;;;;;;;15.95;3.60;;;;;;;14.29;55.57;97635.38;5092748;28;20462;-49
2024/03/11 08:40:22;;;;;;;11.75;3.92;;;;;;;14.70;53.49;97639.16;5091760;28;20035;-49
2024/03/11 08:42:48;;;;;;;13.43;3.95;;;;;;;14.80;53.15;97641.06;5093041;28;20436;-49
2024/03/11 08:45:23;;;;;;;18.92;3.85;;;;;;;14.89;52.94;97644.84;5092676;28;20082;-49
2024/03/11 08:47:50;;;;;;;10.00;3.55;;;;;;;15.24;52.20;97654.06;5091660;28;20023;-49
2024/03/11 08:50:17;;;;;;;10.75;3.53;;;;;;;15.41;51.22;97653.84;5092623;28;20509;-49
2024/03/11 08:52:45;;;;;;;10.77;3.38;;;;;;;15.45;50.37;97654.16;5092566;28;20047;-49
2024/03/11 08:55:13;;;;;;;14.90;4.60;;;;;;;15.72;49.57;97646.09;5091306;28;20069;-49
2024/03/11 08:57:40;;;;;;;8.73;3.85;;;;;;;15.72;48.88;97644.25;5091050;28;20039;-47
2024/03/11 09:00:09;;;;;;;7.03;3.20;;;;;;;16.16;49.08;97651.00;5091147;28;20031;-47
2024/03/11 09:02:36;;;;;;;7.20;3.95;;;;;;;16.96;47.60;97659.28;5092400;28;20536;-47
2024/03/11 09:05:03;;;;;;;7.90;3.22;;;;;;;17.50;46.42;97659.69;5092289;28;20103;-47
2024/03/11 09:07:30;;;;;;;7.57;3.47;;;;;;;18.12;45.49;97663.69;5092325;28;20020;-47
2024/03/11 09:09:57;;;;;;;9.43;3.30;;;;;;;18.66;43.51;97662.00;5092221;28;20031;-47
2024/03/11 09:12:25;;;;;;;13.63;3.30;;;;;;;18.72;43.06;97662.75;5092294;28;20030;-47
2024/03/11 09:14:54;;;;;;;10.15;3.40;;;;;;;18.76;42.72;97661.13;5091742;28;20039;-47
2024/03/11 09:17:20;;;;;;;11.45;4.85;;;;;;;18.52;42.70;97659.16;5091731;28;20047;-47
2024/03/11 09:19:46;;;;;;;6.45;3.40;;;;;;;18.28;43.21;97669.69;5091144;28;20028;-47
2024/03/11 09:22:15;;;;;;;10.65;3.67;;;;;;;17.96;43.18;97676.25;5091054;28;20118;-46
2024/03/11 09:24:41;;;;;;;12.43;4.10;;;;;;;17.97;43.99;97677.06;5091926;28;20028;-47
2024/03/11 09:27:07;;;;;;;9.00;3.45;;;;;;;18.03;43.58;97689.22;5092101;28;20028;-47
2024/03/11 09:29:37;;;;;;;8.27;3.60;;;;;;;17.86;43.76;97686.13;5090674;28;20069;-47
2024/03/11 09:32:05;;;;;;;12.02;3.72;;;;;;;17.69;44.03;97692.53;5090682;28;20386;-47
2024/03/11 09:34:31;;;;;;;8.15;3.50;;;;;;;17.41;44.39;97693.16;5090702;28;20116;-47
2024/03/11 09:36:56;;;;;;;10.05;3.67;;;;;;;17.13;45.15;97692.66;5091684;28;20054;-47
2024/03/11 09:39:22;;;;;;;5.88;3.35;;;;;;;16.80;45.57;97700.03;5090593;28;20117;-47
2024/03/11 09:41:48;;;;;;;14.80;6.43;;;;;;;16.68;46.58;97692.38;5090438;28;20516;-46
2024/03/11 09:44:15;;;;;;;12.48;3.65;;;;;;;16.66;46.76;97698.97;5091743;28;20026;-47
2024/03/11 09:47:04;;;;;;;9.27;3.63;;;;;;;16.63;47.26;97694.22;5091811;28;20401;-47
2024/03/11 09:49:31;;;;;;;6.80;2.90;;;;;;;16.87;47.52;97699.84;5091852;28;20035;-47
2024/03/11 09:52:01;;;;;;;37.78;29.90;;;;;;;17.18;46.64;97695.28;5091622;28;20054;-47
2024/03/11 09:54:28;;;;;;;31.65;22.67;;;;;;;17.64;45.92;97705.00;5090475;28;20024;-47
2024/03/11 09:56:55;;;;;;;18.25;11.63;;;;;;;18.02;44.96;97706.22;5091771;28;20032;-47
2024/03/11 09:59:25;;;;;;;12.93;4.38;;;;;;;18.17;44.09;97703.50;5091725;28;20103;-47
2024/03/11 10:01:52;;;;;;;7.57;3.45;;;;;;;18.33;43.62;97703.38;5091652;28;20032;-47
2024/03/11 10:04:29;;;;;;;16.02;7.07;;;;;;;18.40;43.06;97709.22;5091715;28;20309;-47
2024/03/11 10:06:59;;;;;;;15.40;9.38;;;;;;;18.37;43.00;97704.44;5091638;28;20031;-47
2024/03/11 10:09:31;;;;;;;4.65;2.30;;;;;;;18.57;43.01;97711.47;5090335;28;20024;-47
2024/03/11 10:12:08;;;;;;;9.32;2.88;;;;;;;18.77;42.34;97705.22;5090291;28;20031;-47
2024/03/11 10:14:38;;;;;;;12.38;2.70;;;;;;;18.74;41.50;97709.25;5091561;28;20041;-47
2024/03/11 10:17:20;;;;;;;8.52;3.00;;;;;;;18.70;41.70;97710.09;5091494;28;20488;-47
2024/03/11 10:19:54;;;;;;;18.90;4.22;;;;;;;18.59;41.70;97719.19;5091840;28;20032;-47
2024/03/11 10:22:35;;;;;;;11.88;2.70;;;;;;;18.70;41.63;97720.72;5091574;28;20089;-47
2024/03/11 10:25:04;;;;;;;13.73;8.23;;;;;;;19.23;41.30;97722.69;5091420;28;20038;-47
2024/03/11 10:27:39;;;;;;;21.77;9.85;;;;;;;20.29;40.21;97716.47;5093613;28;20074;-47
2024/03/11 10:30:20;;;;;;;11.07;4.95;;;;;;;21.99;37.47;97717.13;5095251;28;20024;-47
2024/03/11 10:32:51;;;;;;;18.00;11.27;;;;;;;23.67;35.24;97714.28;5093970;28;20054;-47
2024/03/11 10:35:20;;;;;;;26.45;17.40;;;;;;;24.67;32.78;97707.34;5095496;28;20066;-47
2024/03/11 10:37:47;;;;;;;13.80;5.00;;;;;;;24.97;31.80;97710.16;5095135;28;20497;-47
2024/03/11 10:40:18;;;;;;;7.35;4.72;;;;;;;24.69;32.27;97707.84;5095111;28;20043;-47
2024/03/11 10:42:53;;;;;;;11.60;4.30;;;;;;;23.88;32.42;97709.16;5095059;28;20039;-47
2024/03/11 10:45:30;;;;;;;7.00;2.85;;;;;;;22.81;33.54;97718.81;5095016;28;20028;-47
2024/03/11 10:48:00;;;;;;;6.18;2.47;;;;;;;22.18;33.75;97723.16;5094911;28;20040;-46
2024/03/11 10:50:35;;;;;;;8.98;4.88;;;;;;;21.49;35.14;97723.97;5095189;28;20458;-47
2024/03/11 10:53:06;;;;;;;12.07;4.70;;;;;;;21.00;35.53;97729.84;5094931;28;20024;-47
2024/03/11 10:55:34;;;;;;;4.65;3.20;;;;;;;20.41;36.83;97729.38;5094874;28;20111;-47
2024/03/11 10:58:03;;;;;;;5.40;3.42;;;;;;;19.95;37.65;97736.88;5094753;28;20028;-47
2024/03/11 11:00:35;;;;;;;5.78;2.80;;;;;;;19.69;38.58;97733.66;5094736;28;20059;-47
2024/03/11 11:03:08;;;;;;;10.90;4.15;;;;;;;19.45;38.73;97746.97;5094698;28;20036;-47
2024/03/11 11:05:56;;;;;;;10.43;5.07;;;;;;;19.11;39.05;97736.38;5093301;28;20126;-47
2024/03/11 11:08:23;;;;;;;7.53;3.47;;;;;;;19.07;39.50;97735.34;5094615;28;20042;-47
2024/03/11 11:10:51;;;;;;;6.78;3.00;;;;;;;18.95;39.68;97741.00;5094543;28;20448;-47
2024/03/11 11:13:23;;;;;;;3.75;2.60;;;;;;;18.63;39.89;97742.25;5094559;28;20047;-47
2024/03/11 11:15:50;;;;;;;9.05;3.15;;;;;;;18.53;39.72;97745.81;5094517;28;20103;-47
2024/03/11 11:18:18;;;;;;;6.05;3.92;;;;;;;18.61;40.12;97752.38;5094189;28;20052;-47
2024/03/11 11:20:52;;;;;;;6.43;2.28;;;;;;;18.80;39.94;97749.13;5093378;28;20042;-46
2024/03/11 11:23:27;;;;;;;7.45;4.35;;;;;;;18.67;39.41;97751.31;5093375;28;20402;-47
2024/03/11 11:25:56;;;;;;;4.35;2.35;;;;;;;18.32;40.21;97747.75;5094250;28;20027;-46
2024/03/11 11:28:28;;;;;;;6.63;2.35;;;;;;;17.84;40.93;97759.91;5093229;28;20035;-47
2024/03/11 11:31:25;;;;;;;3.95;2.90;;;;;;;17.41;42.13;97757.59;5094121;28;20114;-46
2024/03/11 11:33:59;;;;;;;8.10;3.88;;;;;;;17.08;43.33;97754.44;5094212;28;20070;-46
2024/03/11 11:36:37;;;;;;;2.78;1.80;;;;;;;16.95;44.26;97753.09;5093022;28;20028;-46
2024/03/11 11:39:17;;;;;;;4.10;2.10;;;;;;;16.96;44.25;97756.53;5093133;28;20110;-46
2024/03/11 11:41:49;;;;;;;8.80;2.42;;;;;;;16.90;44.74;97753.09;5093996;28;20031;-47